Flight Track Log - Related Links

Times and Time Zones

All times are in EDT time to prevent confusion due to time zone crossing. See the SWA508 flight status page for this flight to view local times or setup timezone preferences in your user account.

Time Position Orientation Groundspeed Altitude Reporting Facility
EDT Latitude Longitude Course Direction KTS MPH feet Rate Location/Type
Mon 11:00:21 AM 40.5194 -80.3592 285° West 171 197 4,500  Level Cleveland Center
Mon 11:01:21 AM 40.5403 -80.4519 286° West 222 255 7,900 3,250 Climbing Cleveland Center
Mon 11:02:21 AM 40.5611 -80.5531 285° West 262 302 11,000 2,850 Climbing Cleveland Center
Mon 11:03:21 AM 40.5861 -80.6733 285° West 306 352 13,600 3,050 Climbing Cleveland Center
Mon 11:04:21 AM 40.6131 -80.7992 286° West 342 394 17,100 3,150 Climbing Cleveland Center
Mon 11:05:00 AM 40.6486 -81.0430 285° West  Level FlightAware Approximate
Mon 11:05:21 AM 40.6400 -80.9306 285° West 360 414 19,900  Level Cleveland Center
Mon 11:06:21 AM 40.6644 -81.0675 283° West 379 436 22,600 2,550 Climbing Cleveland Center
Mon 11:07:21 AM 40.6950 -81.2103 286° West 402 463 25,000 2,250 Climbing Cleveland Center
Mon 11:08:21 AM 40.7233 -81.3583 284° West 407 468 27,100 2,350 Climbing Cleveland Center
Mon 11:09:21 AM 40.7617 -81.5014 290° West 415 478 29,700 2,400 Climbing Cleveland Center
Mon 11:10:21 AM 40.8083 -81.6531 292° West 415 478 31,900 1,150 Climbing Cleveland Center
Mon 11:11:21 AM 40.8381 -81.8044 285° West 415 478 32,000 50 Climbing Cleveland Center
Mon 11:12:21 AM 40.8656 -81.9558 284° West 420 483 32,000  Level Cleveland Center
Mon 11:13:21 AM 40.8928 -82.1075 283° West 425 489 32,000  Level Cleveland Center
Mon 11:14:21 AM 40.9178 -82.2619 282° West 431 496 32,000  Level Cleveland Center
Mon 11:15:21 AM 40.9467 -82.4111 284° West 431 496 32,000  Level Cleveland Center
Mon 11:16:21 AM 40.9694 -82.5494 282° West 431 496 32,000  Level Cleveland Center
Mon 11:17:21 AM 40.9958 -82.7014 283° West 431 496 32,000  Level Cleveland Center
Mon 11:18:21 AM 41.0242 -82.8539 284° West 431 496 32,000  Level Cleveland Center
Mon 11:19:21 AM 41.0503 -83.0061 283° West 431 496 32,000  Level Cleveland Center
Mon 11:20:21 AM 41.0761 -83.1586 283° West 431 496 32,000  Level Cleveland Center
Mon 11:21:21 AM 41.1017 -83.3222 282° West 431 496 32,000  Level Cleveland Center
Mon 11:22:21 AM 41.1269 -83.4778 282° West 431 496 32,000  Level Cleveland Center
Mon 11:23:22 AM 41.1522 -83.6278 283° West 431 496 32,000  Level Cleveland Center
Mon 11:24:21 AM 41.1792 -83.7864 283° West 431 496 32,000  Level Cleveland Center
Mon 11:25:21 AM 41.2083 -83.9339 285° West 425 489 32,000  Level Cleveland Center
Mon 11:26:53 AM 41.2444 -84.1703 282° West 427 491 32,000  Level Chicago Center
Mon 11:27:55 AM 41.2683 -84.3233 282° West 425 489 32,000  Level Chicago Center
Mon 11:28:57 AM 41.2942 -84.4783 283° West 429 494 32,000 -339 Level Chicago Center
Mon 11:29:59 AM 41.3175 -84.6308 282° West 424 488 31,300 -968 Descending Chicago Center
Mon 11:31:01 AM 41.3406 -84.7803 282° West 415 478 30,000 -634 Descending Chicago Center
Mon 11:32:02 AM 41.3628 -84.9289 281° West 410 472 30,000  Level Chicago Center
Mon 11:33:04 AM 41.3850 -85.0789 281° West 411 473 30,000 -1,248 Level Chicago Center
Mon 11:34:07 AM 41.4119 -85.2556 282° West 405 466 27,400 -2,419 Descending Chicago Center
Mon 11:35:08 AM 41.4328 -85.3992 281° West 395 455 25,000 -2,000 Descending Chicago Center
Mon 11:36:10 AM 41.4533 -85.5406 281° West 385 443 23,300 -1,366 Descending Chicago Center
Mon 11:37:11 AM 41.4739 -85.6756 282° West 370 426 22,200 -1,512 Descending Chicago Center
Mon 11:38:13 AM 41.4928 -85.8075 281° West 360 414 20,200 -1,935 Descending Chicago Center
Mon 11:39:15 AM 41.5117 -85.9364 281° West 353 406 18,200 -1,935 Descending Chicago Center
Mon 11:40:17 AM 41.5250 -86.0622 278° West 345 397 16,200 -1,935 Descending Chicago Center
Mon 11:41:19 AM 41.5233 -86.1894 269° West 341 392 14,200 -1,935 Descending Chicago Center
Mon 11:42:21 AM 41.5236 -86.3128 270° West 335 386 12,200 -1,887 Descending Chicago Center
Mon 11:43:23 AM 41.5225 -86.4575 269° West 325 374 10,300 -1,073 Descending Chicago Center
Mon 11:44:24 AM 41.5208 -86.5733 269° West 315 362 10,000 -146 Descending Chicago Center
Mon 11:45:26 AM 41.5203 -86.6897 270° West 314 361 10,000  Level Chicago Center
Mon 11:46:28 AM 41.5197 -86.8150 270° West 308 354 10,000 -339 Level Chicago Center
Mon 11:47:30 AM 41.5178 -86.9172 269° West 282 325 9,300 -1,016 Descending Chicago Center
Mon 11:48:32 AM 41.5169 -87.0192 269° West 277 319 7,900 -1,306 Descending Chicago Center
Mon 11:49:34 AM 41.5175 -87.1236 270° West 282 325 6,600 -1,107 Descending Chicago Center
Mon 11:50:15 AM 41.5333 -87.2000 286° West 264 304 6,000 -356 Descending Chicago TRACON
Mon 11:51:15 AM 41.5667 -87.2833 298° West 258 297 6,000 -762 Level Chicago TRACON
Mon 11:52:21 AM 41.6000 -87.3833 294° West 278 320 4,400 -1,341 Descending Chicago TRACON
Mon 11:52:40 AM 41.6075 -87.4072 293° West 261 300 4,100 -300 Descending Chicago Center
Mon 11:53:41 AM 41.6367 -87.4978 293° West 265 305 4,000 -49 Descending Chicago Center
Mon 11:54:43 AM 41.6642 -87.5844 293° West 262 302 4,000  Level Chicago Center
Mon 11:55:21 AM 41.7000 -87.6333 314° West 207 238 4,000 -783 Level Chicago TRACON
Mon 11:56:15 AM 41.7333 -87.6667 323° Northwest 189 217 2,800 -991 Descending Chicago TRACON
Mon 11:57:10 AM 41.7667 -87.6667 360° North 174 200 2,200 -470 Descending Chicago TRACON
Mon 11:58:10 AM 41.8167 -87.6833 346° North 150 173 1,900 -550 Descending Chicago TRACON
Mon 11:59:10 AM 41.8000 -87.7333 246° West 134 154 1,100 -800 Descending Chicago TRACON
Mon 12:01:00 PM 41.7833 -87.7500 246° West  Level FlightAware Approximate

Login

Don't have an account? Register now (free) for customized features, flight alerts, and more!